sensor_id;sensor_type;location;lat;lon;timestamp;P1;durP1;ratioP1;P2;durP2;ratioP2
66093;SDS011;52876;49.394;10.892;2023-02-03T00:01:42;7.73;;;7.03;;
66093;SDS011;52876;49.394;10.892;2023-02-03T00:04:08;8.80;;;6.30;;
66093;SDS011;52876;49.394;10.892;2023-02-03T00:06:34;10.33;;;6.90;;
66093;SDS011;52876;49.394;10.892;2023-02-03T00:09:01;7.90;;;7.10;;
66093;SDS011;52876;49.394;10.892;2023-02-03T00:11:28;10.73;;;7.50;;
66093;SDS011;52876;49.394;10.892;2023-02-03T00:13:55;11.07;;;7.97;;
66093;SDS011;52876;49.394;10.892;2023-02-03T00:16:21;8.73;;;7.60;;
66093;SDS011;52876;49.394;10.892;2023-02-03T00:18:47;9.67;;;7.53;;
66093;SDS011;52876;49.394;10.892;2023-02-03T00:21:13;9.97;;;7.50;;
66093;SDS011;52876;49.394;10.892;2023-02-03T00:23:38;9.53;;;8.13;;
66093;SDS011;52876;49.394;10.892;2023-02-03T00:26:08;8.47;;;7.50;;
66093;SDS011;52876;49.394;10.892;2023-02-03T00:28:35;8.73;;;7.30;;
66093;SDS011;52876;49.394;10.892;2023-02-03T00:31:01;8.67;;;7.87;;
66093;SDS011;52876;49.394;10.892;2023-02-03T00:33:27;11.13;;;7.20;;
66093;SDS011;52876;49.394;10.892;2023-02-03T00:35:52;13.63;;;7.90;;
66093;SDS011;52876;49.394;10.892;2023-02-03T00:38:18;9.30;;;8.30;;
66093;SDS011;52876;49.394;10.892;2023-02-03T00:40:50;9.00;;;7.23;;
66093;SDS011;52876;49.394;10.892;2023-02-03T00:43:17;8.60;;;7.33;;
66093;SDS011;52876;49.394;10.892;2023-02-03T00:45:45;8.93;;;7.40;;
66093;SDS011;52876;49.394;10.892;2023-02-03T00:48:11;8.80;;;7.90;;
66093;SDS011;52876;49.394;10.892;2023-02-03T00:50:38;10.77;;;9.20;;
66093;SDS011;52876;49.394;10.892;2023-02-03T00:53:04;9.90;;;8.37;;
66093;SDS011;52876;49.394;10.892;2023-02-03T00:55:31;9.50;;;8.57;;
66093;SDS011;52876;49.394;10.892;2023-02-03T00:57:57;11.80;;;9.37;;
66093;SDS011;52876;49.394;10.892;2023-02-03T01:00:24;11.70;;;8.77;;
66093;SDS011;52876;49.394;10.892;2023-02-03T01:02:50;10.20;;;9.20;;
66093;SDS011;52876;49.394;10.892;2023-02-03T01:05:17;11.37;;;9.67;;
66093;SDS011;52876;49.394;10.892;2023-02-03T01:07:44;12.30;;;9.90;;
66093;SDS011;52876;49.394;10.892;2023-02-03T01:10:10;11.80;;;10.07;;
66093;SDS011;52876;49.394;10.892;2023-02-03T01:12:38;13.00;;;10.60;;
66093;SDS011;52876;49.394;10.892;2023-02-03T01:15:04;11.10;;;9.93;;
66093;SDS011;52876;49.394;10.892;2023-02-03T01:17:33;10.77;;;9.67;;
66093;SDS011;52876;49.394;10.892;2023-02-03T01:19:58;15.77;;;12.10;;
66093;SDS011;52876;49.394;10.892;2023-02-03T01:22:24;14.93;;;11.53;;
66093;SDS011;52876;49.394;10.892;2023-02-03T01:24:50;13.03;;;11.63;;
66093;SDS011;52876;49.394;10.892;2023-02-03T01:27:18;13.87;;;11.10;;
66093;SDS011;52876;49.394;10.892;2023-02-03T01:29:44;14.23;;;11.80;;
66093;SDS011;52876;49.394;10.892;2023-02-03T01:32:10;16.60;;;12.60;;
66093;SDS011;52876;49.394;10.892;2023-02-03T01:34:37;20.87;;;13.87;;
66093;SDS011;52876;49.394;10.892;2023-02-03T01:37:02;17.53;;;12.87;;
66093;SDS011;52876;49.394;10.892;2023-02-03T01:39:28;14.60;;;12.40;;
66093;SDS011;52876;49.394;10.892;2023-02-03T01:41:56;18.40;;;12.97;;
66093;SDS011;52876;49.394;10.892;2023-02-03T01:44:38;18.40;;;13.00;;
66093;SDS011;52876;49.394;10.892;2023-02-03T01:47:05;20.07;;;14.20;;
66093;SDS011;52876;49.394;10.892;2023-02-03T01:49:41;15.27;;;12.03;;
66093;SDS011;52876;49.394;10.892;2023-02-03T01:52:10;16.83;;;13.50;;
66093;SDS011;52876;49.394;10.892;2023-02-03T01:54:37;19.80;;;12.17;;
66093;SDS011;52876;49.394;10.892;2023-02-03T01:57:06;14.03;;;11.33;;
66093;SDS011;52876;49.394;10.892;2023-02-03T01:59:37;13.90;;;11.00;;
66093;SDS011;52876;49.394;10.892;2023-02-03T02:02:05;15.20;;;12.33;;
66093;SDS011;52876;49.394;10.892;2023-02-03T02:04:33;17.23;;;11.43;;
66093;SDS011;52876;49.394;10.892;2023-02-03T02:07:08;15.27;;;11.03;;
66093;SDS011;52876;49.394;10.892;2023-02-03T02:09:34;16.53;;;12.10;;
66093;SDS011;52876;49.394;10.892;2023-02-03T02:12:00;13.73;;;10.80;;
66093;SDS011;52876;49.394;10.892;2023-02-03T02:14:28;12.63;;;10.30;;
66093;SDS011;52876;49.394;10.892;2023-02-03T02:16:56;16.57;;;11.03;;
66093;SDS011;52876;49.394;10.892;2023-02-03T02:19:47;13.70;;;10.97;;
66093;SDS011;52876;49.394;10.892;2023-02-03T02:22:38;11.70;;;9.43;;
66093;SDS011;52876;49.394;10.892;2023-02-03T02:25:22;18.17;;;11.37;;
66093;SDS011;52876;49.394;10.892;2023-02-03T02:28:15;12.40;;;10.17;;
66093;SDS011;52876;49.394;10.892;2023-02-03T02:31:33;13.10;;;10.67;;
66093;SDS011;52876;49.394;10.892;2023-02-03T02:34:10;15.23;;;11.20;;
66093;SDS011;52876;49.394;10.892;2023-02-03T02:36:42;14.00;;;9.40;;
66093;SDS011;52876;49.394;10.892;2023-02-03T02:39:17;14.07;;;10.30;;
66093;SDS011;52876;49.394;10.892;2023-02-03T02:41:48;14.30;;;10.17;;
66093;SDS011;52876;49.394;10.892;2023-02-03T02:44:20;10.97;;;9.60;;
66093;SDS011;52876;49.394;10.892;2023-02-03T02:46:53;13.07;;;8.77;;
66093;SDS011;52876;49.394;10.892;2023-02-03T02:49:22;13.57;;;9.77;;
66093;SDS011;52876;49.394;10.892;2023-02-03T02:51:52;10.43;;;9.10;;
66093;SDS011;52876;49.394;10.892;2023-02-03T02:54:20;14.97;;;9.20;;
66093;SDS011;52876;49.394;10.892;2023-02-03T02:56:48;12.67;;;8.93;;
66093;SDS011;52876;49.394;10.892;2023-02-03T02:59:17;14.03;;;10.07;;
66093;SDS011;52876;49.394;10.892;2023-02-03T03:01:43;10.80;;;8.80;;
66093;SDS011;52876;49.394;10.892;2023-02-03T03:04:11;12.00;;;8.10;;
66093;SDS011;52876;49.394;10.892;2023-02-03T03:06:41;10.30;;;8.07;;
66093;SDS011;52876;49.394;10.892;2023-02-03T03:09:09;9.10;;;7.47;;
66093;SDS011;52876;49.394;10.892;2023-02-03T03:11:41;10.73;;;8.30;;
66093;SDS011;52876;49.394;10.892;2023-02-03T03:14:10;14.67;;;7.97;;
66093;SDS011;52876;49.394;10.892;2023-02-03T03:16:40;9.27;;;7.67;;
66093;SDS011;52876;49.394;10.892;2023-02-03T03:19:13;8.67;;;7.20;;
66093;SDS011;52876;49.394;10.892;2023-02-03T03:21:45;10.60;;;6.90;;
66093;SDS011;52876;49.394;10.892;2023-02-03T03:24:15;7.47;;;6.67;;
66093;SDS011;52876;49.394;10.892;2023-02-03T03:26:46;10.20;;;6.80;;
66093;SDS011;52876;49.394;10.892;2023-02-03T03:29:17;7.77;;;7.00;;
66093;SDS011;52876;49.394;10.892;2023-02-03T03:31:46;8.20;;;6.33;;
66093;SDS011;52876;49.394;10.892;2023-02-03T03:34:14;7.90;;;6.93;;
66093;SDS011;52876;49.394;10.892;2023-02-03T03:36:43;9.20;;;8.30;;
66093;SDS011;52876;49.394;10.892;2023-02-03T03:39:12;8.77;;;7.73;;
66093;SDS011;52876;49.394;10.892;2023-02-03T03:41:48;8.77;;;7.80;;
66093;SDS011;52876;49.394;10.892;2023-02-03T03:44:22;8.97;;;7.37;;
66093;SDS011;52876;49.394;10.892;2023-02-03T03:46:53;8.20;;;7.40;;
66093;SDS011;52876;49.394;10.892;2023-02-03T03:49:28;8.27;;;7.47;;
66093;SDS011;52876;49.394;10.892;2023-02-03T03:51:58;8.43;;;7.63;;
66093;SDS011;52876;49.394;10.892;2023-02-03T03:54:27;9.40;;;8.03;;
66093;SDS011;52876;49.394;10.892;2023-02-03T03:56:57;8.07;;;7.27;;
66093;SDS011;52876;49.394;10.892;2023-02-03T03:59:25;7.53;;;6.83;;
66093;SDS011;52876;49.394;10.892;2023-02-03T04:01:56;7.90;;;7.10;;
66093;SDS011;52876;49.394;10.892;2023-02-03T04:04:24;7.07;;;6.50;;
66093;SDS011;52876;49.394;10.892;2023-02-03T04:06:53;7.67;;;6.97;;
66093;SDS011;52876;49.394;10.892;2023-02-03T04:09:20;8.97;;;7.47;;
66093;SDS011;52876;49.394;10.892;2023-02-03T04:11:46;7.60;;;6.63;;
66093;SDS011;52876;49.394;10.892;2023-02-03T04:14:12;7.30;;;6.60;;
66093;SDS011;52876;49.394;10.892;2023-02-03T04:16:39;7.63;;;6.93;;
66093;SDS011;52876;49.394;10.892;2023-02-03T04:19:05;8.40;;;7.60;;
66093;SDS011;52876;49.394;10.892;2023-02-03T04:21:31;8.83;;;7.33;;
66093;SDS011;52876;49.394;10.892;2023-02-03T04:23:58;7.50;;;6.87;;
66093;SDS011;52876;49.394;10.892;2023-02-03T04:26:26;5.93;;;5.53;;
66093;SDS011;52876;49.394;10.892;2023-02-03T04:28:52;7.63;;;6.83;;
66093;SDS011;52876;49.394;10.892;2023-02-03T04:31:18;7.33;;;6.73;;
66093;SDS011;52876;49.394;10.892;2023-02-03T04:33:44;8.20;;;6.47;;
66093;SDS011;52876;49.394;10.892;2023-02-03T04:36:09;7.87;;;7.17;;
66093;SDS011;52876;49.394;10.892;2023-02-03T04:38:35;7.43;;;6.73;;
66093;SDS011;52876;49.394;10.892;2023-02-03T04:41:03;7.97;;;7.27;;
66093;SDS011;52876;49.394;10.892;2023-02-03T04:43:29;7.73;;;6.97;;
66093;SDS011;52876;49.394;10.892;2023-02-03T04:45:57;7.67;;;7.03;;
66093;SDS011;52876;49.394;10.892;2023-02-03T04:48:23;7.33;;;6.67;;
66093;SDS011;52876;49.394;10.892;2023-02-03T04:50:50;6.73;;;6.13;;
66093;SDS011;52876;49.394;10.892;2023-02-03T04:53:16;7.20;;;6.50;;
66093;SDS011;52876;49.394;10.892;2023-02-03T04:55:44;7.40;;;6.70;;
66093;SDS011;52876;49.394;10.892;2023-02-03T04:58:12;6.67;;;6.13;;
66093;SDS011;52876;49.394;10.892;2023-02-03T05:00:39;6.60;;;5.80;;
66093;SDS011;52876;49.394;10.892;2023-02-03T05:03:04;7.40;;;6.37;;
66093;SDS011;52876;49.394;10.892;2023-02-03T05:05:30;6.70;;;6.10;;
66093;SDS011;52876;49.394;10.892;2023-02-03T05:07:56;6.50;;;6.00;;
66093;SDS011;52876;49.394;10.892;2023-02-03T05:10:23;6.03;;;5.57;;
66093;SDS011;52876;49.394;10.892;2023-02-03T05:12:49;6.70;;;6.20;;
66093;SDS011;52876;49.394;10.892;2023-02-03T05:15:16;5.30;;;4.90;;
66093;SDS011;52876;49.394;10.892;2023-02-03T05:17:43;5.87;;;5.27;;
66093;SDS011;52876;49.394;10.892;2023-02-03T05:20:09;5.60;;;5.10;;
66093;SDS011;52876;49.394;10.892;2023-02-03T05:22:37;6.60;;;6.00;;
66093;SDS011;52876;49.394;10.892;2023-02-03T05:25:03;5.50;;;5.00;;
66093;SDS011;52876;49.394;10.892;2023-02-03T05:27:31;6.27;;;5.67;;
66093;SDS011;52876;49.394;10.892;2023-02-03T05:29:56;4.40;;;4.10;;
66093;SDS011;52876;49.394;10.892;2023-02-03T05:32:25;5.47;;;5.07;;
66093;SDS011;52876;49.394;10.892;2023-02-03T05:34:51;4.73;;;4.20;;
66093;SDS011;52876;49.394;10.892;2023-02-03T05:37:18;5.80;;;5.20;;
66093;SDS011;52876;49.394;10.892;2023-02-03T05:39:44;5.70;;;5.20;;
66093;SDS011;52876;49.394;10.892;2023-02-03T05:42:11;5.87;;;5.33;;
66093;SDS011;52876;49.394;10.892;2023-02-03T05:44:37;8.20;;;5.20;;
66093;SDS011;52876;49.394;10.892;2023-02-03T05:47:02;5.00;;;4.60;;
66093;SDS011;52876;49.394;10.892;2023-02-03T05:49:29;4.80;;;4.27;;
66093;SDS011;52876;49.394;10.892;2023-02-03T05:51:56;5.63;;;5.13;;
66093;SDS011;52876;49.394;10.892;2023-02-03T05:54:22;5.53;;;5.00;;
66093;SDS011;52876;49.394;10.892;2023-02-03T05:56:49;5.60;;;5.10;;
66093;SDS011;52876;49.394;10.892;2023-02-03T05:59:15;6.33;;;5.20;;
66093;SDS011;52876;49.394;10.892;2023-02-03T06:01:41;4.60;;;4.20;;
66093;SDS011;52876;49.394;10.892;2023-02-03T06:04:06;4.10;;;3.80;;
66093;SDS011;52876;49.394;10.892;2023-02-03T06:06:35;6.67;;;4.80;;
66093;SDS011;52876;49.394;10.892;2023-02-03T06:09:01;3.77;;;3.50;;
66093;SDS011;52876;49.394;10.892;2023-02-03T06:11:30;4.33;;;3.93;;
66093;SDS011;52876;49.394;10.892;2023-02-03T06:13:56;4.27;;;3.87;;
66093;SDS011;52876;49.394;10.892;2023-02-03T06:16:24;3.20;;;3.00;;
66093;SDS011;52876;49.394;10.892;2023-02-03T06:18:51;4.00;;;3.60;;
66093;SDS011;52876;49.394;10.892;2023-02-03T06:21:17;4.20;;;3.90;;
66093;SDS011;52876;49.394;10.892;2023-02-03T06:23:45;4.47;;;3.90;;
66093;SDS011;52876;49.394;10.892;2023-02-03T06:26:12;3.93;;;3.63;;
66093;SDS011;52876;49.394;10.892;2023-02-03T06:28:39;4.23;;;3.93;;
66093;SDS011;52876;49.394;10.892;2023-02-03T06:31:07;3.57;;;3.27;;
66093;SDS011;52876;49.394;10.892;2023-02-03T06:33:34;3.40;;;3.17;;
66093;SDS011;52876;49.394;10.892;2023-02-03T06:36:01;4.27;;;3.67;;
66093;SDS011;52876;49.394;10.892;2023-02-03T06:38:27;4.03;;;3.73;;
66093;SDS011;52876;49.394;10.892;2023-02-03T06:40:55;3.20;;;2.90;;
66093;SDS011;52876;49.394;10.892;2023-02-03T06:43:21;3.20;;;2.90;;
66093;SDS011;52876;49.394;10.892;2023-02-03T06:45:48;2.90;;;2.70;;
66093;SDS011;52876;49.394;10.892;2023-02-03T06:48:14;2.87;;;2.67;;
66093;SDS011;52876;49.394;10.892;2023-02-03T06:50:41;2.43;;;2.23;;
66093;SDS011;52876;49.394;10.892;2023-02-03T06:53:06;2.60;;;2.40;;
66093;SDS011;52876;49.394;10.892;2023-02-03T06:55:32;2.40;;;2.20;;
66093;SDS011;52876;49.394;10.892;2023-02-03T06:57:59;2.50;;;2.30;;
66093;SDS011;52876;49.394;10.892;2023-02-03T07:00:25;2.60;;;2.40;;
66093;SDS011;52876;49.394;10.892;2023-02-03T07:02:52;2.37;;;2.17;;
66093;SDS011;52876;49.394;10.892;2023-02-03T07:05:19;2.40;;;2.20;;
66093;SDS011;52876;49.394;10.892;2023-02-03T07:07:46;3.20;;;2.90;;
66093;SDS011;52876;49.394;10.892;2023-02-03T07:10:12;2.60;;;2.40;;
66093;SDS011;52876;49.394;10.892;2023-02-03T07:12:39;3.13;;;2.57;;
66093;SDS011;52876;49.394;10.892;2023-02-03T07:15:07;2.60;;;2.47;;
66093;SDS011;52876;49.394;10.892;2023-02-03T07:17:35;3.77;;;3.00;;
66093;SDS011;52876;49.394;10.892;2023-02-03T07:20:00;2.80;;;2.60;;
66093;SDS011;52876;49.394;10.892;2023-02-03T07:22:27;3.53;;;3.00;;
66093;SDS011;52876;49.394;10.892;2023-02-03T07:24:53;3.83;;;3.50;;
66093;SDS011;52876;49.394;10.892;2023-02-03T07:27:19;3.60;;;3.30;;
66093;SDS011;52876;49.394;10.892;2023-02-03T07:29:44;3.97;;;3.67;;
66093;SDS011;52876;49.394;10.892;2023-02-03T07:32:11;3.80;;;3.43;;
66093;SDS011;52876;49.394;10.892;2023-02-03T07:34:37;3.53;;;3.00;;
66093;SDS011;52876;49.394;10.892;2023-02-03T07:37:04;5.43;;;3.47;;
66093;SDS011;52876;49.394;10.892;2023-02-03T07:39:30;3.50;;;3.30;;
66093;SDS011;52876;49.394;10.892;2023-02-03T07:41:57;3.57;;;3.27;;
66093;SDS011;52876;49.394;10.892;2023-02-03T07:44:23;3.30;;;3.00;;
66093;SDS011;52876;49.394;10.892;2023-02-03T07:46:50;4.03;;;3.60;;
66093;SDS011;52876;49.394;10.892;2023-02-03T07:49:17;3.80;;;3.50;;
66093;SDS011;52876;49.394;10.892;2023-02-03T07:51:44;4.03;;;3.83;;
66093;SDS011;52876;49.394;10.892;2023-02-03T07:54:11;3.90;;;3.60;;
66093;SDS011;52876;49.394;10.892;2023-02-03T07:56:38;3.43;;;3.13;;
66093;SDS011;52876;49.394;10.892;2023-02-03T07:59:05;6.83;;;4.30;;
66093;SDS011;52876;49.394;10.892;2023-02-03T08:01:32;4.93;;;4.43;;
66093;SDS011;52876;49.394;10.892;2023-02-03T08:04:00;4.20;;;3.80;;
66093;SDS011;52876;49.394;10.892;2023-02-03T08:06:28;3.27;;;2.97;;
66093;SDS011;52876;49.394;10.892;2023-02-03T08:08:54;5.57;;;5.00;;
66093;SDS011;52876;49.394;10.892;2023-02-03T08:11:19;6.20;;;4.47;;
66093;SDS011;52876;49.394;10.892;2023-02-03T08:13:45;3.83;;;3.53;;
66093;SDS011;52876;49.394;10.892;2023-02-03T08:16:12;5.63;;;4.50;;
66093;SDS011;52876;49.394;10.892;2023-02-03T08:18:38;4.40;;;4.00;;
66093;SDS011;52876;49.394;10.892;2023-02-03T08:21:05;4.40;;;4.10;;
66093;SDS011;52876;49.394;10.892;2023-02-03T08:23:32;4.20;;;3.80;;
66093;SDS011;52876;49.394;10.892;2023-02-03T08:25:59;3.23;;;2.93;;
66093;SDS011;52876;49.394;10.892;2023-02-03T08:28:25;4.03;;;3.70;;
66093;SDS011;52876;49.394;10.892;2023-02-03T08:30:50;3.20;;;3.00;;
66093;SDS011;52876;49.394;10.892;2023-02-03T08:33:16;3.60;;;3.30;;
66093;SDS011;52876;49.394;10.892;2023-02-03T08:35:43;3.77;;;3.47;;
66093;SDS011;52876;49.394;10.892;2023-02-03T08:38:10;3.83;;;3.53;;
66093;SDS011;52876;49.394;10.892;2023-02-03T08:40:37;4.70;;;4.30;;
66093;SDS011;52876;49.394;10.892;2023-02-03T08:43:03;3.03;;;2.83;;
66093;SDS011;52876;49.394;10.892;2023-02-03T08:45:30;3.37;;;3.17;;
66093;SDS011;52876;49.394;10.892;2023-02-03T08:47:55;3.43;;;3.13;;
66093;SDS011;52876;49.394;10.892;2023-02-03T08:50:21;4.90;;;4.27;;
66093;SDS011;52876;49.394;10.892;2023-02-03T08:52:48;3.33;;;3.13;;
66093;SDS011;52876;49.394;10.892;2023-02-03T08:55:14;3.40;;;3.20;;
66093;SDS011;52876;49.394;10.892;2023-02-03T08:57:42;2.80;;;2.60;;
66093;SDS011;52876;49.394;10.892;2023-02-03T09:00:09;3.10;;;2.90;;
66093;SDS011;52876;49.394;10.892;2023-02-03T09:02:37;3.80;;;2.77;;
66093;SDS011;52876;49.394;10.892;2023-02-03T09:05:02;2.77;;;2.57;;
66093;SDS011;52876;49.394;10.892;2023-02-03T09:07:30;3.70;;;3.40;;
66093;SDS011;52876;49.394;10.892;2023-02-03T09:09:56;4.03;;;3.07;;
66093;SDS011;52876;49.394;10.892;2023-02-03T09:12:22;3.50;;;3.20;;
66093;SDS011;52876;49.394;10.892;2023-02-03T09:14:49;3.40;;;3.20;;
66093;SDS011;52876;49.394;10.892;2023-02-03T09:17:16;2.80;;;2.60;;
66093;SDS011;52876;49.394;10.892;2023-02-03T09:19:42;5.20;;;2.93;;
66093;SDS011;52876;49.394;10.892;2023-02-03T09:22:08;6.93;;;4.20;;
66093;SDS011;52876;49.394;10.892;2023-02-03T09:24:34;4.30;;;3.90;;
66093;SDS011;52876;49.394;10.892;2023-02-03T09:27:02;6.63;;;5.33;;
66093;SDS011;52876;49.394;10.892;2023-02-03T09:29:28;4.07;;;3.50;;
66093;SDS011;52876;49.394;10.892;2023-02-03T09:31:56;3.30;;;3.10;;
66093;SDS011;52876;49.394;10.892;2023-02-03T09:34:22;5.77;;;5.27;;
66093;SDS011;52876;49.394;10.892;2023-02-03T09:36:48;4.50;;;4.10;;
66093;SDS011;52876;49.394;10.892;2023-02-03T09:39:14;4.23;;;3.90;;
66093;SDS011;52876;49.394;10.892;2023-02-03T09:41:50;5.80;;;5.20;;
66093;SDS011;52876;49.394;10.892;2023-02-03T09:44:32;3.07;;;2.87;;
66093;SDS011;52876;49.394;10.892;2023-02-03T09:47:10;4.10;;;3.53;;
66093;SDS011;52876;49.394;10.892;2023-02-03T09:49:40;3.50;;;3.30;;
66093;SDS011;52876;49.394;10.892;2023-02-03T09:52:11;5.17;;;3.57;;
66093;SDS011;52876;49.394;10.892;2023-02-03T09:54:43;3.40;;;3.10;;
66093;SDS011;52876;49.394;10.892;2023-02-03T09:57:19;3.37;;;3.10;;
66093;SDS011;52876;49.394;10.892;2023-02-03T09:59:46;3.27;;;3.03;;
66093;SDS011;52876;49.394;10.892;2023-02-03T10:02:20;3.00;;;2.80;;
66093;SDS011;52876;49.394;10.892;2023-02-03T10:05:00;3.50;;;3.30;;
66093;SDS011;52876;49.394;10.892;2023-02-03T10:07:38;3.30;;;3.10;;
66093;SDS011;52876;49.394;10.892;2023-02-03T10:10:15;3.77;;;2.93;;
66093;SDS011;52876;49.394;10.892;2023-02-03T10:12:48;3.33;;;2.90;;
66093;SDS011;52876;49.394;10.892;2023-02-03T10:15:36;3.00;;;2.80;;
66093;SDS011;52876;49.394;10.892;2023-02-03T10:18:18;3.40;;;3.20;;
66093;SDS011;52876;49.394;10.892;2023-02-03T10:20:48;2.90;;;2.70;;
66093;SDS011;52876;49.394;10.892;2023-02-03T10:23:18;3.50;;;3.30;;
66093;SDS011;52876;49.394;10.892;2023-02-03T10:25:51;3.60;;;3.37;;
66093;SDS011;52876;49.394;10.892;2023-02-03T10:28:19;4.03;;;3.63;;
66093;SDS011;52876;49.394;10.892;2023-02-03T10:30:47;3.63;;;3.43;;
66093;SDS011;52876;49.394;10.892;2023-02-03T10:33:18;3.53;;;3.33;;
66093;SDS011;52876;49.394;10.892;2023-02-03T10:35:48;3.47;;;3.17;;
66093;SDS011;52876;49.394;10.892;2023-02-03T10:38:18;3.13;;;2.93;;
66093;SDS011;52876;49.394;10.892;2023-02-03T10:41:01;3.70;;;3.40;;
66093;SDS011;52876;49.394;10.892;2023-02-03T10:43:27;3.30;;;3.00;;
66093;SDS011;52876;49.394;10.892;2023-02-03T10:45:57;3.37;;;3.17;;
66093;SDS011;52876;49.394;10.892;2023-02-03T10:48:24;3.30;;;3.10;;
66093;SDS011;52876;49.394;10.892;2023-02-03T10:50:53;3.50;;;3.20;;
66093;SDS011;52876;49.394;10.892;2023-02-03T10:53:22;2.63;;;2.43;;
66093;SDS011;52876;49.394;10.892;2023-02-03T10:55:59;2.90;;;2.80;;
66093;SDS011;52876;49.394;10.892;2023-02-03T10:58:27;3.57;;;3.00;;
66093;SDS011;52876;49.394;10.892;2023-02-03T11:00:54;4.37;;;3.97;;
66093;SDS011;52876;49.394;10.892;2023-02-03T11:03:29;3.13;;;2.93;;
66093;SDS011;52876;49.394;10.892;2023-02-03T11:06:07;3.13;;;2.93;;
66093;SDS011;52876;49.394;10.892;2023-02-03T11:08:35;4.20;;;3.90;;
66093;SDS011;52876;49.394;10.892;2023-02-03T11:11:03;3.93;;;3.43;;
66093;SDS011;52876;49.394;10.892;2023-02-03T11:13:30;4.10;;;3.67;;
66093;SDS011;52876;49.394;10.892;2023-02-03T11:15:57;4.63;;;3.83;;
66093;SDS011;52876;49.394;10.892;2023-02-03T11:18:36;4.60;;;4.20;;
66093;SDS011;52876;49.394;10.892;2023-02-03T11:21:16;4.13;;;3.83;;
66093;SDS011;52876;49.394;10.892;2023-02-03T11:23:48;3.80;;;3.50;;
66093;SDS011;52876;49.394;10.892;2023-02-03T11:26:20;4.07;;;3.60;;
66093;SDS011;52876;49.394;10.892;2023-02-03T11:28:50;2.73;;;2.53;;
66093;SDS011;52876;49.394;10.892;2023-02-03T11:31:21;5.17;;;4.20;;
66093;SDS011;52876;49.394;10.892;2023-02-03T11:33:53;3.13;;;2.93;;
66093;SDS011;52876;49.394;10.892;2023-02-03T11:36:26;4.07;;;3.77;;
66093;SDS011;52876;49.394;10.892;2023-02-03T11:39:08;3.30;;;3.10;;
66093;SDS011;52876;49.394;10.892;2023-02-03T11:41:44;2.40;;;2.10;;
66093;SDS011;52876;49.394;10.892;2023-02-03T11:44:11;3.33;;;2.53;;
66093;SDS011;52876;49.394;10.892;2023-02-03T11:46:41;3.00;;;2.80;;
66093;SDS011;52876;49.394;10.892;2023-02-03T11:49:12;3.30;;;3.10;;
66093;SDS011;52876;49.394;10.892;2023-02-03T11:52:08;3.20;;;3.00;;
66093;SDS011;52876;49.394;10.892;2023-02-03T11:54:51;2.97;;;2.77;;
66093;SDS011;52876;49.394;10.892;2023-02-03T11:57:26;3.97;;;3.67;;
66093;SDS011;52876;49.394;10.892;2023-02-03T12:00:02;3.47;;;3.20;;
66093;SDS011;52876;49.394;10.892;2023-02-03T12:02:52;3.33;;;3.03;;
66093;SDS011;52876;49.394;10.892;2023-02-03T12:05:41;3.20;;;3.00;;
66093;SDS011;52876;49.394;10.892;2023-02-03T12:08:28;2.80;;;2.60;;
66093;SDS011;52876;49.394;10.892;2023-02-03T12:11:07;3.67;;;2.70;;
66093;SDS011;52876;49.394;10.892;2023-02-03T12:13:48;3.37;;;3.17;;
66093;SDS011;52876;49.394;10.892;2023-02-03T12:16:41;3.40;;;2.77;;
66093;SDS011;52876;49.394;10.892;2023-02-03T12:19:21;3.30;;;3.10;;
66093;SDS011;52876;49.394;10.892;2023-02-03T12:22:02;2.63;;;2.50;;
66093;SDS011;52876;49.394;10.892;2023-02-03T12:24:37;2.80;;;2.60;;
66093;SDS011;52876;49.394;10.892;2023-02-03T12:27:18;2.60;;;2.40;;
66093;SDS011;52876;49.394;10.892;2023-02-03T12:29:55;2.57;;;2.37;;
66093;SDS011;52876;49.394;10.892;2023-02-03T12:32:26;3.20;;;2.10;;
66093;SDS011;52876;49.394;10.892;2023-02-03T12:34:58;1.83;;;1.73;;
66093;SDS011;52876;49.394;10.892;2023-02-03T12:37:39;1.87;;;1.77;;
66093;SDS011;52876;49.394;10.892;2023-02-03T12:40:11;2.33;;;2.10;;
66093;SDS011;52876;49.394;10.892;2023-02-03T12:42:45;2.77;;;1.97;;
66093;SDS011;52876;49.394;10.892;2023-02-03T12:45:16;1.80;;;1.70;;
66093;SDS011;52876;49.394;10.892;2023-02-03T12:47:48;1.90;;;1.80;;
66093;SDS011;52876;49.394;10.892;2023-02-03T12:50:17;2.27;;;2.07;;
66093;SDS011;52876;49.394;10.892;2023-02-03T12:52:50;1.90;;;1.70;;
66093;SDS011;52876;49.394;10.892;2023-02-03T12:55:21;2.00;;;1.90;;
66093;SDS011;52876;49.394;10.892;2023-02-03T12:57:57;1.90;;;1.80;;
66093;SDS011;52876;49.394;10.892;2023-02-03T13:00:29;2.27;;;1.83;;
66093;SDS011;52876;49.394;10.892;2023-02-03T13:03:08;3.30;;;1.83;;
66093;SDS011;52876;49.394;10.892;2023-02-03T13:05:40;3.43;;;2.10;;
66093;SDS011;52876;49.394;10.892;2023-02-03T13:08:14;2.43;;;1.77;;
66093;SDS011;52876;49.394;10.892;2023-02-03T13:10:49;1.80;;;1.70;;
66093;SDS011;52876;49.394;10.892;2023-02-03T13:13:21;2.17;;;1.97;;
66093;SDS011;52876;49.394;10.892;2023-02-03T13:15:55;2.20;;;2.00;;
66093;SDS011;52876;49.394;10.892;2023-02-03T13:18:24;1.90;;;1.80;;
66093;SDS011;52876;49.394;10.892;2023-02-03T13:20:54;2.40;;;2.20;;
66093;SDS011;52876;49.394;10.892;2023-02-03T13:23:22;2.57;;;2.40;;
66093;SDS011;52876;49.394;10.892;2023-02-03T13:26:03;2.37;;;2.17;;
66093;SDS011;52876;49.394;10.892;2023-02-03T13:28:46;2.53;;;2.00;;
66093;SDS011;52876;49.394;10.892;2023-02-03T13:31:25;4.20;;;3.30;;
66093;SDS011;52876;49.394;10.892;2023-02-03T13:34:02;3.30;;;1.93;;
66093;SDS011;52876;49.394;10.892;2023-02-03T13:39:38;2.23;;;2.00;;
66093;SDS011;52876;49.394;10.892;2023-02-03T13:42:18;2.10;;;2.00;;
66093;SDS011;52876;49.394;10.892;2023-02-03T13:44:49;1.73;;;1.60;;
66093;SDS011;52876;49.394;10.892;2023-02-03T13:47:20;2.00;;;1.90;;
66093;SDS011;52876;49.394;10.892;2023-02-03T13:49:49;1.70;;;1.60;;
66093;SDS011;52876;49.394;10.892;2023-02-03T13:52:23;1.90;;;1.80;;
66093;SDS011;52876;49.394;10.892;2023-02-03T13:54:53;2.50;;;2.30;;
66093;SDS011;52876;49.394;10.892;2023-02-03T13:57:21;2.90;;;2.17;;
66093;SDS011;52876;49.394;10.892;2023-02-03T13:59:52;2.10;;;2.00;;
66093;SDS011;52876;49.394;10.892;2023-02-03T14:17:14;3.20;;;1.80;;
66093;SDS011;52876;49.394;10.892;2023-02-03T14:20:36;1.73;;;1.63;;
66093;SDS011;52876;49.394;10.892;2023-02-03T14:23:13;1.70;;;1.60;;
66093;SDS011;52876;49.394;10.892;2023-02-03T14:25:45;2.37;;;2.20;;
66093;SDS011;52876;49.394;10.892;2023-02-03T14:28:16;1.70;;;1.60;;
66093;SDS011;52876;49.394;10.892;2023-02-03T14:31:05;2.40;;;2.30;;
66093;SDS011;52876;49.394;10.892;2023-02-03T14:36:30;1.80;;;1.70;;
66093;SDS011;52876;49.394;10.892;2023-02-03T14:38:59;1.73;;;1.63;;
66093;SDS011;52876;49.394;10.892;2023-02-03T14:41:32;1.90;;;1.80;;
66093;SDS011;52876;49.394;10.892;2023-02-03T14:44:11;1.40;;;1.30;;
66093;SDS011;52876;49.394;10.892;2023-02-03T14:46:58;2.57;;;2.37;;
66093;SDS011;52876;49.394;10.892;2023-02-03T14:49:36;1.73;;;1.63;;
66093;SDS011;52876;49.394;10.892;2023-02-03T14:52:17;2.37;;;2.27;;
66093;SDS011;52876;49.394;10.892;2023-02-03T14:55:06;1.80;;;1.70;;
66093;SDS011;52876;49.394;10.892;2023-02-03T14:57:49;1.70;;;1.60;;
66093;SDS011;52876;49.394;10.892;2023-02-03T15:00:27;1.43;;;1.33;;
66093;SDS011;52876;49.394;10.892;2023-02-03T15:03:15;1.80;;;1.70;;
66093;SDS011;52876;49.394;10.892;2023-02-03T15:05:43;2.30;;;1.60;;
66093;SDS011;52876;49.394;10.892;2023-02-03T15:11:22;1.20;;;1.10;;
66093;SDS011;52876;49.394;10.892;2023-02-03T15:13:50;1.80;;;1.70;;